sensor_id;sensor_type;location;lat;lon;timestamp;pressure;altitude;pressure_sealevel;temperature;humidity
69630;BME280;56857;52.212;5.496;2023-10-08T00:01:11;102377.59;;;18.25;100.00
69630;BME280;56857;52.212;5.496;2023-10-08T00:03:36;102381.28;;;18.24;100.00
69630;BME280;56857;52.212;5.496;2023-10-08T00:06:04;102388.53;;;18.23;100.00
69630;BME280;56857;52.212;5.496;2023-10-08T00:08:30;102399.25;;;18.23;100.00
69630;BME280;56857;52.212;5.496;2023-10-08T00:10:56;102394.72;;;18.24;100.00
69630;BME280;56857;52.212;5.496;2023-10-08T00:13:21;102401.09;;;18.23;100.00
69630;BME280;56857;52.212;5.496;2023-10-08T00:15:46;102406.47;;;18.23;100.00
69630;BME280;56857;52.212;5.496;2023-10-08T00:18:12;102400.28;;;18.22;100.00
69630;BME280;56857;52.212;5.496;2023-10-08T00:20:37;102402.09;;;18.22;100.00
69630;BME280;56857;52.212;5.496;2023-10-08T00:23:03;102399.63;;;18.20;100.00
69630;BME280;56857;52.212;5.496;2023-10-08T00:25:28;102395.28;;;18.19;100.00
69630;BME280;56857;52.212;5.496;2023-10-08T00:27:53;102399.78;;;18.19;100.00
69630;BME280;56857;52.212;5.496;2023-10-08T00:30:19;102389.03;;;18.19;100.00
69630;BME280;56857;52.212;5.496;2023-10-08T00:32:44;102386.56;;;18.17;100.00
69630;BME280;56857;52.212;5.496;2023-10-08T00:35:10;102399.16;;;18.17;100.00
69630;BME280;56857;52.212;5.496;2023-10-08T00:37:35;102387.75;;;18.15;100.00
69630;BME280;56857;52.212;5.496;2023-10-08T00:40:00;102379.91;;;18.13;100.00
69630;BME280;56857;52.212;5.496;2023-10-08T00:42:26;102381.09;;;18.11;100.00
69630;BME280;56857;52.212;5.496;2023-10-08T00:44:51;102382.13;;;18.10;100.00
69630;BME280;56857;52.212;5.496;2023-10-08T00:47:16;102374.22;;;18.08;100.00
69630;BME280;56857;52.212;5.496;2023-10-08T00:49:42;102362.00;;;18.05;100.00
69630;BME280;56857;52.212;5.496;2023-10-08T00:52:14;102353.78;;;18.07;100.00
69630;BME280;56857;52.212;5.496;2023-10-08T00:54:42;102350.91;;;18.09;100.00
69630;BME280;56857;52.212;5.496;2023-10-08T00:57:07;102342.22;;;18.06;100.00
69630;BME280;56857;52.212;5.496;2023-10-08T00:59:33;102332.47;;;18.05;100.00
69630;BME280;56857;52.212;5.496;2023-10-08T01:01:59;102344.25;;;18.04;100.00
69630;BME280;56857;52.212;5.496;2023-10-08T01:04:25;102346.25;;;18.02;100.00
69630;BME280;56857;52.212;5.496;2023-10-08T01:06:52;102351.16;;;17.99;100.00
69630;BME280;56857;52.212;5.496;2023-10-08T01:09:17;102354.03;;;17.97;100.00
69630;BME280;56857;52.212;5.496;2023-10-08T01:11:42;102347.00;;;17.96;100.00
69630;BME280;56857;52.212;5.496;2023-10-08T01:14:08;102357.72;;;17.96;100.00
69630;BME280;56857;52.212;5.496;2023-10-08T01:16:33;102360.41;;;17.96;100.00
69630;BME280;56857;52.212;5.496;2023-10-08T01:18:59;102358.94;;;17.94;100.00
69630;BME280;56857;52.212;5.496;2023-10-08T01:21:28;102360.75;;;17.93;100.00
69630;BME280;56857;52.212;5.496;2023-10-08T01:23:53;102360.97;;;17.92;100.00
69630;BME280;56857;52.212;5.496;2023-10-08T01:26:20;102350.41;;;17.90;100.00
69630;BME280;56857;52.212;5.496;2023-10-08T01:28:45;102349.56;;;17.90;100.00
69630;BME280;56857;52.212;5.496;2023-10-08T01:31:11;102365.66;;;17.90;100.00
69630;BME280;56857;52.212;5.496;2023-10-08T01:33:36;102383.81;;;17.88;100.00
69630;BME280;56857;52.212;5.496;2023-10-08T01:36:01;102390.16;;;17.87;100.00
69630;BME280;56857;52.212;5.496;2023-10-08T01:38:28;102385.00;;;17.85;100.00
69630;BME280;56857;52.212;5.496;2023-10-08T01:40:53;102393.88;;;17.86;100.00
69630;BME280;56857;52.212;5.496;2023-10-08T01:43:19;102393.22;;;17.83;100.00
69630;BME280;56857;52.212;5.496;2023-10-08T01:45:44;102387.00;;;17.83;100.00
69630;BME280;56857;52.212;5.496;2023-10-08T01:48:10;102388.88;;;17.82;100.00
69630;BME280;56857;52.212;5.496;2023-10-08T01:50:38;102400.63;;;17.81;100.00
69630;BME280;56857;52.212;5.496;2023-10-08T01:53:04;102401.44;;;17.82;100.00
69630;BME280;56857;52.212;5.496;2023-10-08T01:55:29;102412.34;;;17.80;100.00
69630;BME280;56857;52.212;5.496;2023-10-08T01:57:54;102424.94;;;17.80;100.00
69630;BME280;56857;52.212;5.496;2023-10-08T02:00:20;102444.53;;;17.80;100.00
69630;BME280;56857;52.212;5.496;2023-10-08T02:02:52;102444.53;;;17.80;100.00
69630;BME280;56857;52.212;5.496;2023-10-08T02:05:17;102429.28;;;17.81;100.00
69630;BME280;56857;52.212;5.496;2023-10-08T02:07:42;102415.84;;;17.81;100.00
69630;BME280;56857;52.212;5.496;2023-10-08T02:10:08;102435.50;;;17.81;100.00
69630;BME280;56857;52.212;5.496;2023-10-08T02:12:33;102438.19;;;17.81;100.00
69630;BME280;56857;52.212;5.496;2023-10-08T02:14:59;102444.38;;;17.82;100.00
69630;BME280;56857;52.212;5.496;2023-10-08T02:17:24;102458.78;;;17.81;100.00
69630;BME280;56857;52.212;5.496;2023-10-08T02:19:49;102454.28;;;17.81;100.00
69630;BME280;56857;52.212;5.496;2023-10-08T02:22:14;102443.69;;;17.80;100.00
69630;BME280;56857;52.212;5.496;2023-10-08T02:24:40;102399.97;;;17.79;100.00
69630;BME280;56857;52.212;5.496;2023-10-08T02:27:05;102399.28;;;17.77;100.00
69630;BME280;56857;52.212;5.496;2023-10-08T02:29:31;102419.56;;;17.80;100.00
69630;BME280;56857;52.212;5.496;2023-10-08T02:31:57;102447.41;;;17.79;100.00
69630;BME280;56857;52.212;5.496;2023-10-08T02:34:22;102430.50;;;17.78;100.00
69630;BME280;56857;52.212;5.496;2023-10-08T02:36:48;102436.16;;;17.75;100.00
69630;BME280;56857;52.212;5.496;2023-10-08T02:39:14;102433.31;;;17.77;100.00
69630;BME280;56857;52.212;5.496;2023-10-08T02:41:40;102446.75;;;17.77;100.00
69630;BME280;56857;52.212;5.496;2023-10-08T02:44:06;102425.44;;;17.75;100.00
69630;BME280;56857;52.212;5.496;2023-10-08T02:46:31;102422.91;;;17.74;100.00
69630;BME280;56857;52.212;5.496;2023-10-08T02:48:56;102407.84;;;17.73;100.00
69630;BME280;56857;52.212;5.496;2023-10-08T02:51:22;102421.25;;;17.73;100.00
69630;BME280;56857;52.212;5.496;2023-10-08T02:53:47;102426.78;;;17.71;100.00
69630;BME280;56857;52.212;5.496;2023-10-08T02:56:12;102457.78;;;17.74;100.00
69630;BME280;56857;52.212;5.496;2023-10-08T02:58:41;102440.72;;;17.75;100.00
69630;BME280;56857;52.212;5.496;2023-10-08T03:01:07;102429.13;;;17.74;100.00
69630;BME280;56857;52.212;5.496;2023-10-08T03:03:32;102441.53;;;17.75;100.00
69630;BME280;56857;52.212;5.496;2023-10-08T03:05:58;102430.66;;;17.77;100.00
69630;BME280;56857;52.212;5.496;2023-10-08T03:08:23;102419.25;;;17.75;100.00
69630;BME280;56857;52.212;5.496;2023-10-08T03:10:52;102430.97;;;17.74;100.00
69630;BME280;56857;52.212;5.496;2023-10-08T03:13:18;102439.84;;;17.74;100.00
69630;BME280;56857;52.212;5.496;2023-10-08T03:15:43;102437.34;;;17.73;100.00
69630;BME280;56857;52.212;5.496;2023-10-08T03:18:08;102449.75;;;17.74;100.00
69630;BME280;56857;52.212;5.496;2023-10-08T03:20:34;102449.94;;;17.72;100.00
69630;BME280;56857;52.212;5.496;2023-10-08T03:23:00;102447.25;;;17.72;100.00
69630;BME280;56857;52.212;5.496;2023-10-08T03:25:25;102432.00;;;17.73;100.00
69630;BME280;56857;52.212;5.496;2023-10-08T03:27:50;102442.88;;;17.71;100.00
69630;BME280;56857;52.212;5.496;2023-10-08T03:30:16;102436.09;;;17.60;100.00
69630;BME280;56857;52.212;5.496;2023-10-08T03:32:42;102440.84;;;17.50;100.00
69630;BME280;56857;52.212;5.496;2023-10-08T03:35:08;102473.75;;;17.36;100.00
69630;BME280;56857;52.212;5.496;2023-10-08T03:37:33;102497.75;;;17.21;100.00
69630;BME280;56857;52.212;5.496;2023-10-08T03:39:58;102479.19;;;17.11;100.00
69630;BME280;56857;52.212;5.496;2023-10-08T03:42:24;102485.91;;;17.07;100.00
69630;BME280;56857;52.212;5.496;2023-10-08T03:44:50;102465.16;;;17.01;100.00
69630;BME280;56857;52.212;5.496;2023-10-08T03:47:15;102476.22;;;16.98;100.00
69630;BME280;56857;52.212;5.496;2023-10-08T03:49:40;102481.94;;;16.95;100.00
69630;BME280;56857;52.212;5.496;2023-10-08T03:52:06;102499.50;;;16.89;100.00
69630;BME280;56857;52.212;5.496;2023-10-08T03:54:31;102505.41;;;16.85;100.00
69630;BME280;56857;52.212;5.496;2023-10-08T03:56:57;102508.59;;;16.80;100.00
69630;BME280;56857;52.212;5.496;2023-10-08T03:59:22;102517.81;;;16.78;100.00
69630;BME280;56857;52.212;5.496;2023-10-08T04:01:47;102522.28;;;16.69;100.00
69630;BME280;56857;52.212;5.496;2023-10-08T04:04:12;102541.03;;;16.69;100.00
69630;BME280;56857;52.212;5.496;2023-10-08T04:06:38;102551.06;;;16.67;100.00
69630;BME280;56857;52.212;5.496;2023-10-08T04:09:04;102559.63;;;16.62;100.00
69630;BME280;56857;52.212;5.496;2023-10-08T04:11:29;102559.59;;;16.54;100.00
69630;BME280;56857;52.212;5.496;2023-10-08T04:13:55;102546.38;;;16.44;100.00
69630;BME280;56857;52.212;5.496;2023-10-08T04:16:20;102541.22;;;16.43;100.00
69630;BME280;56857;52.212;5.496;2023-10-08T04:18:47;102541.22;;;16.43;100.00
69630;BME280;56857;52.212;5.496;2023-10-08T04:21:12;102535.03;;;16.42;100.00
69630;BME280;56857;52.212;5.496;2023-10-08T04:23:37;102537.16;;;16.39;100.00
69630;BME280;56857;52.212;5.496;2023-10-08T04:26:02;102539.34;;;16.35;100.00
69630;BME280;56857;52.212;5.496;2023-10-08T04:28:28;102544.69;;;16.35;100.00
69630;BME280;56857;52.212;5.496;2023-10-08T04:30:53;102528.63;;;16.35;100.00
69630;BME280;56857;52.212;5.496;2023-10-08T04:33:18;102527.81;;;16.35;100.00
69630;BME280;56857;52.212;5.496;2023-10-08T04:35:45;102517.28;;;16.33;100.00
69630;BME280;56857;52.212;5.496;2023-10-08T04:38:10;102519.97;;;16.33;100.00
69630;BME280;56857;52.212;5.496;2023-10-08T04:40:35;102504.06;;;16.32;100.00
69630;BME280;56857;52.212;5.496;2023-10-08T04:43:01;102501.56;;;16.30;100.00
69630;BME280;56857;52.212;5.496;2023-10-08T04:45:26;102505.22;;;16.29;100.00
69630;BME280;56857;52.212;5.496;2023-10-08T04:47:51;102501.72;;;16.29;100.00
69630;BME280;56857;52.212;5.496;2023-10-08T04:50:17;102523.31;;;16.27;100.00
69630;BME280;56857;52.212;5.496;2023-10-08T04:52:42;102545.69;;;16.26;100.00
69630;BME280;56857;52.212;5.496;2023-10-08T04:55:07;102558.22;;;16.26;100.00
69630;BME280;56857;52.212;5.496;2023-10-08T04:57:33;102567.28;;;16.25;100.00
69630;BME280;56857;52.212;5.496;2023-10-08T04:59:58;102555.88;;;16.22;100.00
69630;BME280;56857;52.212;5.496;2023-10-08T05:02:23;102553.53;;;16.19;100.00
69630;BME280;56857;52.212;5.496;2023-10-08T05:04:50;102554.88;;;16.15;100.00
69630;BME280;56857;52.212;5.496;2023-10-08T05:07:15;102552.88;;;16.09;100.00
69630;BME280;56857;52.212;5.496;2023-10-08T05:09:40;102548.66;;;16.07;100.00
69630;BME280;56857;52.212;5.496;2023-10-08T05:12:06;102551.66;;;16.04;100.00
69630;BME280;56857;52.212;5.496;2023-10-08T05:14:31;102561.88;;;16.00;100.00
69630;BME280;56857;52.212;5.496;2023-10-08T05:16:57;102564.19;;;15.95;100.00
69630;BME280;56857;52.212;5.496;2023-10-08T05:19:22;102566.00;;;15.86;100.00
69630;BME280;56857;52.212;5.496;2023-10-08T05:21:47;102569.84;;;15.84;100.00
69630;BME280;56857;52.212;5.496;2023-10-08T05:24:13;102574.34;;;15.83;100.00
69630;BME280;56857;52.212;5.496;2023-10-08T05:26:38;102587.03;;;15.81;100.00
69630;BME280;56857;52.212;5.496;2023-10-08T05:29:04;102604.09;;;15.80;100.00
69630;BME280;56857;52.212;5.496;2023-10-08T05:31:29;102598.22;;;15.77;100.00
69630;BME280;56857;52.212;5.496;2023-10-08T05:33:54;102603.59;;;15.77;100.00
69630;BME280;56857;52.212;5.496;2023-10-08T05:36:20;102578.84;;;15.74;100.00
69630;BME280;56857;52.212;5.496;2023-10-08T05:38:45;102588.69;;;15.74;100.00
69630;BME280;56857;52.212;5.496;2023-10-08T05:41:10;102595.38;;;15.70;100.00
69630;BME280;56857;52.212;5.496;2023-10-08T05:43:37;102591.84;;;15.69;100.00
69630;BME280;56857;52.212;5.496;2023-10-08T05:46:06;102604.53;;;15.67;100.00
69630;BME280;56857;52.212;5.496;2023-10-08T05:48:31;102635.78;;;15.67;100.00
69630;BME280;56857;52.212;5.496;2023-10-08T05:51:06;102648.44;;;15.65;100.00
69630;BME280;56857;52.212;5.496;2023-10-08T05:53:31;102639.06;;;15.61;100.00
69630;BME280;56857;52.212;5.496;2023-10-08T05:56:04;102609.28;;;15.56;100.00
69630;BME280;56857;52.212;5.496;2023-10-08T05:58:29;102590.06;;;15.52;100.00
69630;BME280;56857;52.212;5.496;2023-10-08T06:00:54;102575.03;;;15.51;100.00
69630;BME280;56857;52.212;5.496;2023-10-08T06:03:20;102587.72;;;15.49;100.00
69630;BME280;56857;52.212;5.496;2023-10-08T06:05:45;102615.44;;;15.48;100.00
69630;BME280;56857;52.212;5.496;2023-10-08T06:08:10;102595.88;;;15.47;100.00
69630;BME280;56857;52.212;5.496;2023-10-08T06:10:36;102617.25;;;15.47;100.00
69630;BME280;56857;52.212;5.496;2023-10-08T06:13:07;102623.47;;;15.48;100.00
69630;BME280;56857;52.212;5.496;2023-10-08T06:15:50;102643.00;;;15.48;100.00
69630;BME280;56857;52.212;5.496;2023-10-08T06:18:21;102639.50;;;15.48;100.00
69630;BME280;56857;52.212;5.496;2023-10-08T06:20:46;102626.44;;;15.45;100.00
69630;BME280;56857;52.212;5.496;2023-10-08T06:23:13;102630.94;;;15.44;100.00
69630;BME280;56857;52.212;5.496;2023-10-08T06:25:38;102632.94;;;15.42;100.00
69630;BME280;56857;52.212;5.496;2023-10-08T06:28:04;102644.59;;;15.41;100.00
69630;BME280;56857;52.212;5.496;2023-10-08T06:30:29;102641.41;;;15.38;100.00
69630;BME280;56857;52.212;5.496;2023-10-08T06:32:55;102647.75;;;15.37;100.00
69630;BME280;56857;52.212;5.496;2023-10-08T06:35:20;102648.59;;;15.37;100.00
69630;BME280;56857;52.212;5.496;2023-10-08T06:37:46;102647.06;;;15.35;100.00
69630;BME280;56857;52.212;5.496;2023-10-08T06:40:11;102660.44;;;15.35;100.00
69630;BME280;56857;52.212;5.496;2023-10-08T06:42:37;102647.25;;;15.33;100.00
69630;BME280;56857;52.212;5.496;2023-10-08T06:45:02;102646.22;;;15.34;100.00
69630;BME280;56857;52.212;5.496;2023-10-08T06:47:27;102651.44;;;15.36;100.00
69630;BME280;56857;52.212;5.496;2023-10-08T06:49:53;102657.75;;;15.35;100.00
69630;BME280;56857;52.212;5.496;2023-10-08T06:52:18;102646.41;;;15.33;100.00
69630;BME280;56857;52.212;5.496;2023-10-08T06:54:43;102651.75;;;15.33;100.00
69630;BME280;56857;52.212;5.496;2023-10-08T06:57:09;102652.72;;;15.32;100.00
69630;BME280;56857;52.212;5.496;2023-10-08T06:59:34;102652.72;;;15.32;100.00
69630;BME280;56857;52.212;5.496;2023-10-08T07:01:59;102654.72;;;15.29;100.00
69630;BME280;56857;52.212;5.496;2023-10-08T07:04:25;102666.25;;;15.30;100.00
69630;BME280;56857;52.212;5.496;2023-10-08T07:06:50;102670.44;;;15.33;100.00
69630;BME280;56857;52.212;5.496;2023-10-08T07:09:16;102680.97;;;15.34;100.00
69630;BME280;56857;52.212;5.496;2023-10-08T07:11:42;102685.16;;;15.37;100.00
69630;BME280;56857;52.212;5.496;2023-10-08T07:14:07;102686.00;;;15.37;100.00
69630;BME280;56857;52.212;5.496;2023-10-08T07:16:32;102684.16;;;15.38;100.00
69630;BME280;56857;52.212;5.496;2023-10-08T07:18:58;102698.22;;;15.40;100.00
69630;BME280;56857;52.212;5.496;2023-10-08T07:21:23;102693.72;;;15.40;100.00
69630;BME280;56857;52.212;5.496;2023-10-08T07:23:49;102691.03;;;15.40;100.00
69630;BME280;56857;52.212;5.496;2023-10-08T07:26:14;102680.34;;;15.40;100.00
69630;BME280;56857;52.212;5.496;2023-10-08T07:28:41;102678.69;;;15.39;100.00
69630;BME280;56857;52.212;5.496;2023-10-08T07:31:13;102685.00;;;15.38;100.00
69630;BME280;56857;52.212;5.496;2023-10-08T07:33:39;102679.50;;;15.40;100.00
69630;BME280;56857;52.212;5.496;2023-10-08T07:36:04;102677.38;;;15.43;100.00
69630;BME280;56857;52.212;5.496;2023-10-08T07:38:30;102687.44;;;15.49;100.00
69630;BME280;56857;52.212;5.496;2023-10-08T07:40:56;102688.97;;;15.52;100.00
69630;BME280;56857;52.212;5.496;2023-10-08T07:43:21;102691.31;;;15.55;100.00
69630;BME280;56857;52.212;5.496;2023-10-08T07:45:46;102689.31;;;15.57;100.00
69630;BME280;56857;52.212;5.496;2023-10-08T07:48:12;102688.00;;;15.61;100.00
69630;BME280;56857;52.212;5.496;2023-10-08T07:50:41;102701.06;;;15.64;100.00
69630;BME280;56857;52.212;5.496;2023-10-08T07:53:07;102704.41;;;15.66;100.00
69630;BME280;56857;52.212;5.496;2023-10-08T07:55:34;102705.59;;;15.64;100.00
69630;BME280;56857;52.212;5.496;2023-10-08T07:58:00;102709.75;;;15.66;100.00
69630;BME280;56857;52.212;5.496;2023-10-08T08:00:25;102713.84;;;15.70;100.00
69630;BME280;56857;52.212;5.496;2023-10-08T08:02:51;102713.34;;;15.75;100.00
69630;BME280;56857;52.212;5.496;2023-10-08T08:05:17;102711.06;;;15.80;100.00
69630;BME280;56857;52.212;5.496;2023-10-08T08:07:43;102711.56;;;15.84;100.00
69630;BME280;56857;52.212;5.496;2023-10-08T08:10:08;102719.09;;;15.88;100.00
69630;BME280;56857;52.212;5.496;2023-10-08T08:12:34;102724.16;;;15.91;100.00
69630;BME280;56857;52.212;5.496;2023-10-08T08:14:59;102728.34;;;15.94;100.00
69630;BME280;56857;52.212;5.496;2023-10-08T08:17:24;102731.53;;;15.97;100.00
69630;BME280;56857;52.212;5.496;2023-10-08T08:19:51;102734.91;;;15.99;100.00
69630;BME280;56857;52.212;5.496;2023-10-08T08:22:18;102738.41;;;16.00;100.00
69630;BME280;56857;52.212;5.496;2023-10-08T08:24:43;102735.41;;;16.03;100.00
69630;BME280;56857;52.212;5.496;2023-10-08T08:27:09;102738.91;;;16.04;100.00
69630;BME280;56857;52.212;5.496;2023-10-08T08:29:35;102741.47;;;16.05;100.00
69630;BME280;56857;52.212;5.496;2023-10-08T08:32:00;102752.81;;;16.07;100.00
69630;BME280;56857;52.212;5.496;2023-10-08T08:34:25;102757.00;;;16.10;100.00
69630;BME280;56857;52.212;5.496;2023-10-08T08:36:51;102768.09;;;16.15;100.00
69630;BME280;56857;52.212;5.496;2023-10-08T08:39:16;102783.97;;;16.16;100.00
69630;BME280;56857;52.212;5.496;2023-10-08T08:41:42;102775.94;;;16.16;100.00
69630;BME280;56857;52.212;5.496;2023-10-08T08:44:08;102776.78;;;16.17;100.00
69630;BME280;56857;52.212;5.496;2023-10-08T08:46:34;102769.63;;;16.17;100.00
69630;BME280;56857;52.212;5.496;2023-10-08T08:49:02;102768.44;;;16.20;100.00
69630;BME280;56857;52.212;5.496;2023-10-08T08:51:28;102764.78;;;16.21;100.00
69630;BME280;56857;52.212;5.496;2023-10-08T08:53:54;102763.13;;;16.28;100.00
69630;BME280;56857;52.212;5.496;2023-10-08T08:56:21;102742.44;;;16.38;100.00
69630;BME280;56857;52.212;5.496;2023-10-08T08:58:46;102742.16;;;16.58;100.00
69630;BME280;56857;52.212;5.496;2023-10-08T09:01:13;102749.09;;;16.77;100.00
69630;BME280;56857;52.212;5.496;2023-10-08T09:03:39;102749.13;;;16.85;100.00
69630;BME280;56857;52.212;5.496;2023-10-08T09:06:05;102755.69;;;16.90;100.00
69630;BME280;56857;52.212;5.496;2023-10-08T09:08:37;102748.16;;;16.94;100.00
69630;BME280;56857;52.212;5.496;2023-10-08T09:11:03;102745.16;;;16.97;100.00
69630;BME280;56857;52.212;5.496;2023-10-08T09:13:28;102740.31;;;17.09;100.00
69630;BME280;56857;52.212;5.496;2023-10-08T09:16:01;102742.97;;;17.33;100.00
69630;BME280;56857;52.212;5.496;2023-10-08T09:18:27;102739.94;;;17.86;100.00
69630;BME280;56857;52.212;5.496;2023-10-08T09:20:53;102743.59;;;18.40;100.00
69630;BME280;56857;52.212;5.496;2023-10-08T09:23:18;102737.34;;;18.87;100.00
69630;BME280;56857;52.212;5.496;2023-10-08T09:25:46;102736.97;;;19.36;100.00
69630;BME280;56857;52.212;5.496;2023-10-08T09:28:12;102729.53;;;19.76;100.00
69630;BME280;56857;52.212;5.496;2023-10-08T09:30:37;102725.13;;;19.83;100.00
69630;BME280;56857;52.212;5.496;2023-10-08T09:33:03;102730.28;;;19.85;100.00
69630;BME280;56857;52.212;5.496;2023-10-08T09:35:28;102734.09;;;19.90;100.00
69630;BME280;56857;52.212;5.496;2023-10-08T09:37:54;102738.00;;;20.03;100.00
69630;BME280;56857;52.212;5.496;2023-10-08T09:40:20;102728.44;;;20.00;100.00
69630;BME280;56857;52.212;5.496;2023-10-08T09:42:47;102742.84;;;19.93;100.00
69630;BME280;56857;52.212;5.496;2023-10-08T09:45:13;102735.69;;;19.85;100.00
69630;BME280;56857;52.212;5.496;2023-10-08T09:47:42;102739.38;;;19.69;100.00
69630;BME280;56857;52.212;5.496;2023-10-08T09:50:10;102742.13;;;19.61;100.00
69630;BME280;56857;52.212;5.496;2023-10-08T09:53:00;102737.06;;;19.43;100.00
69630;BME280;56857;52.212;5.496;2023-10-08T09:55:26;102742.72;;;19.33;100.00
69630;BME280;56857;52.212;5.496;2023-10-08T09:57:52;102737.75;;;19.22;100.00
69630;BME280;56857;52.212;5.496;2023-10-08T10:00:18;102735.16;;;19.14;100.00
69630;BME280;56857;52.212;5.496;2023-10-08T10:02:44;102732.09;;;19.17;100.00
69630;BME280;56857;52.212;5.496;2023-10-08T10:05:19;102737.69;;;19.30;100.00
69630;BME280;56857;52.212;5.496;2023-10-08T10:07:47;102739.78;;;19.43;100.00
69630;BME280;56857;52.212;5.496;2023-10-08T10:10:25;102722.44;;;19.45;100.00
69630;BME280;56857;52.212;5.496;2023-10-08T10:12:51;102720.69;;;19.53;100.00
69630;BME280;56857;52.212;5.496;2023-10-08T10:15:19;102715.41;;;19.59;100.00
69630;BME280;56857;52.212;5.496;2023-10-08T10:17:47;102718.59;;;19.78;100.00
69630;BME280;56857;52.212;5.496;2023-10-08T10:20:15;102732.09;;;19.93;100.00
69630;BME280;56857;52.212;5.496;2023-10-08T10:22:41;102731.97;;;20.01;100.00
69630;BME280;56857;52.212;5.496;2023-10-08T10:25:07;102738.00;;;20.03;100.00
69630;BME280;56857;52.212;5.496;2023-10-08T10:27:32;102740.13;;;20.07;100.00
69630;BME280;56857;52.212;5.496;2023-10-08T10:30:04;102731.13;;;20.00;100.00
69630;BME280;56857;52.212;5.496;2023-10-08T10:32:29;102731.13;;;20.00;100.00
69630;BME280;56857;52.212;5.496;2023-10-08T10:34:55;102730.75;;;20.03;100.00
69630;BME280;56857;52.212;5.496;2023-10-08T10:37:20;102732.88;;;20.08;100.00
69630;BME280;56857;52.212;5.496;2023-10-08T10:39:55;102731.22;;;20.07;100.00
69630;BME280;56857;52.212;5.496;2023-10-08T10:42:22;102727.63;;;20.14;100.00
69630;BME280;56857;52.212;5.496;2023-10-08T10:44:48;102732.06;;;20.07;100.00
69630;BME280;56857;52.212;5.496;2023-10-08T10:47:14;102729.28;;;20.01;100.00
69630;BME280;56857;52.212;5.496;2023-10-08T10:49:40;102732.44;;;20.04;100.00
69630;BME280;56857;52.212;5.496;2023-10-08T10:52:05;102720.91;;;20.10;100.00
69630;BME280;56857;52.212;5.496;2023-10-08T10:54:31;102730.19;;;20.23;100.00
69630;BME280;56857;52.212;5.496;2023-10-08T10:56:56;102720.16;;;20.31;100.00
69630;BME280;56857;52.212;5.496;2023-10-08T10:59:22;102712.81;;;20.40;100.00
69630;BME280;56857;52.212;5.496;2023-10-08T11:01:51;102706.38;;;20.56;100.00
69630;BME280;56857;52.212;5.496;2023-10-08T11:04:17;102712.22;;;20.59;100.00
69630;BME280;56857;52.212;5.496;2023-10-08T11:06:44;102701.00;;;20.56;100.00
69630;BME280;56857;52.212;5.496;2023-10-08T11:09:11;102707.59;;;20.53;100.00
69630;BME280;56857;52.212;5.496;2023-10-08T11:11:36;102708.63;;;20.52;100.00
69630;BME280;56857;52.212;5.496;2023-10-08T11:14:03;102706.78;;;20.53;100.00
69630;BME280;56857;52.212;5.496;2023-10-08T11:16:31;102704.69;;;20.55;100.00
69630;BME280;56857;52.212;5.496;2023-10-08T11:18:57;102700.56;;;20.52;100.00
69630;BME280;56857;52.212;5.496;2023-10-08T11:21:23;102702.28;;;20.45;100.00
69630;BME280;56857;52.212;5.496;2023-10-08T11:23:50;102695.78;;;20.40;100.00
69630;BME280;56857;52.212;5.496;2023-10-08T11:26:15;102701.75;;;20.35;100.00
69630;BME280;56857;52.212;5.496;2023-10-08T11:28:41;102696.28;;;20.28;100.00
69630;BME280;56857;52.212;5.496;2023-10-08T11:31:09;102699.66;;;20.30;100.00
69630;BME280;56857;52.212;5.496;2023-10-08T11:33:39;102690.53;;;20.31;100.00
69630;BME280;56857;52.212;5.496;2023-10-08T11:36:06;102692.41;;;20.31;100.00
69630;BME280;56857;52.212;5.496;2023-10-08T11:38:41;102698.44;;;20.18;100.00
69630;BME280;56857;52.212;5.496;2023-10-08T11:41:17;102695.47;;;20.13;100.00
69630;BME280;56857;52.212;5.496;2023-10-08T11:43:42;102703.47;;;20.06;100.00
69630;BME280;56857;52.212;5.496;2023-10-08T11:46:08;102699.66;;;20.01;100.00
69630;BME280;56857;52.212;5.496;2023-10-08T11:48:33;102695.03;;;19.95;100.00
69630;BME280;56857;52.212;5.496;2023-10-08T11:50:58;102691.03;;;19.90;100.00
69630;BME280;56857;52.212;5.496;2023-10-08T11:53:24;102684.09;;;19.81;100.00
69630;BME280;56857;52.212;5.496;2023-10-08T11:55:49;102682.34;;;19.74;100.00
69630;BME280;56857;52.212;5.496;2023-10-08T11:58:14;102680.06;;;19.62;100.00
69630;BME280;56857;52.212;5.496;2023-10-08T12:00:41;102672.63;;;19.50;100.00
69630;BME280;56857;52.212;5.496;2023-10-08T12:03:07;102676.63;;;19.39;100.00
69630;BME280;56857;52.212;5.496;2023-10-08T12:05:32;102672.84;;;19.25;100.00
69630;BME280;56857;52.212;5.496;2023-10-08T12:07:57;102666.72;;;19.16;100.00
69630;BME280;56857;52.212;5.496;2023-10-08T12:10:23;102663.56;;;19.13;100.00
69630;BME280;56857;52.212;5.496;2023-10-08T12:12:52;102657.72;;;19.09;100.00
69630;BME280;56857;52.212;5.496;2023-10-08T12:15:21;102651.41;;;19.02;100.00
69630;BME280;56857;52.212;5.496;2023-10-08T12:17:48;102649.44;;;18.96;100.00
69630;BME280;56857;52.212;5.496;2023-10-08T12:20:13;102648.66;;;18.87;100.00
69630;BME280;56857;52.212;5.496;2023-10-08T12:22:39;102637.13;;;18.79;100.00
69630;BME280;56857;52.212;5.496;2023-10-08T12:25:04;102634.50;;;18.70;100.00
69630;BME280;56857;52.212;5.496;2023-10-08T12:27:29;102633.34;;;18.65;100.00
69630;BME280;56857;52.212;5.496;2023-10-08T12:29:55;102629.84;;;18.64;100.00
69630;BME280;56857;52.212;5.496;2023-10-08T12:32:20;102637.69;;;18.66;100.00
69630;BME280;56857;52.212;5.496;2023-10-08T12:34:45;102629.16;;;18.62;100.00